KHKS/HKS METAR and TAF weather

Enter ICAO airport designator
Station Type Date Time Source
KHKS METAR 2022/11/27 08:53 UTC NOAA

KHKS 270853Z AUTO 24013G20KT 10SM CLR 12/07 A2982 RMK AO2 PK WND 25030/0801 SLP091 T01220067 51022


Station Type Date Time Source
KHKS Decoded METAR 2022/11/27 08:53 UTC NOAA

HAWKINS FIELD, MS, United States (KHKS) 32-20N 090-13W 108M
Nov 27, 2022 - 03:53 AM EST / 2022.11.27 0853 UTC
Wind: from the WSW (240 degrees) at 15 MPH (13 KT) gusting to 23 MPH (20 KT):0
Visibility: 10 mile(s):0
Sky conditions: clear
Temperature: 54.0 F (12.2 C)
Dew Point: 44.1 F (6.7 C)
Relative Humidity: 69%
Pressure (altimeter): 29.82 in. Hg (1009 hPa)
Pressure tendency: 0.06 inches (2.2 hPa) higher than three hours ago
ob: KHKS 270853Z AUTO 24013G20KT 10SM CLR 12/07 A2982 RMK AO2 PK WND 25030/0801 SLP091 T01220067 51022
cycle: 9

Station Type Date Time Source
KHKS TAF 2022/11/27 06:54 UTC NOAA

TAF KHKS 270551Z 2706/2806 24014G24KT P6SM SCT035
FM271500 25015G20KT P6SM FEW040
FM272300 27005KT P6SM FEW060

Example: see airport list